createdAt,value
2023-02-02T00:01:01.283Z,101374.16
2023-02-02T00:03:27.852Z,101383.06
2023-02-02T00:05:54.466Z,101395.44
2023-02-02T00:08:21.909Z,101385.84
2023-02-02T00:10:50.464Z,101389.44
2023-02-02T00:13:17.528Z,101379.16
2023-02-02T00:15:44.394Z,101387.09
2023-02-02T00:18:11.091Z,101389.88
2023-02-02T00:20:37.693Z,101388.31
2023-02-02T00:23:04.519Z,101386.88
2023-02-02T00:25:31.420Z,101386.88
2023-02-02T00:27:58.247Z,101387.66
2023-02-02T00:30:24.885Z,101359.69
2023-02-02T00:32:53.225Z,101377.06
2023-02-02T00:35:20.138Z,101389.31
2023-02-02T00:37:46.713Z,101381.84
2023-02-02T00:40:13.392Z,101382.81
2023-02-02T00:42:39.979Z,101389.75
2023-02-02T00:45:16.174Z,101384.50
2023-02-02T00:47:48.829Z,101390.97
2023-02-02T00:50:19.459Z,101404.09
2023-02-02T00:52:47.736Z,101393.50
2023-02-02T00:55:15.609Z,101388.88
2023-02-02T00:57:44.284Z,101403.09
2023-02-02T01:00:13.940Z,101391.56
2023-02-02T01:02:40.469Z,101386.16
2023-02-02T01:05:07.240Z,101397.38
2023-02-02T01:07:33.817Z,101394.50
2023-02-02T01:10:00.317Z,101398.91
2023-02-02T01:12:26.916Z,101397.94
2023-02-02T01:14:53.476Z,101407.38
2023-02-02T01:17:20.021Z,101410.97
2023-02-02T01:19:46.612Z,101411.84
2023-02-02T01:22:13.461Z,101419.84
2023-02-02T01:24:40.045Z,101417.13
2023-02-02T01:27:06.656Z,101413.97
2023-02-02T01:29:33.241Z,101408.97
2023-02-02T01:31:59.809Z,101405.38
2023-02-02T01:34:26.404Z,101414.09
2023-02-02T01:36:52.983Z,101405.09
2023-02-02T01:39:19.624Z,101405.88
2023-02-02T01:41:46.203Z,101414.63
2023-02-02T01:44:50.151Z,101408.53
2023-02-02T01:47:17.394Z,101417.13
2023-02-02T01:49:44.374Z,101420.84
2023-02-02T01:52:13.662Z,101425.28
2023-02-02T01:54:50.394Z,101416.44
2023-02-02T01:57:45.569Z,101412.75
2023-02-02T02:00:14.768Z,101416.34
2023-02-02T02:02:43.529Z,101409.41
2023-02-02T02:05:11.212Z,101406.94
2023-02-02T02:07:40.182Z,101393.94
2023-02-02T02:10:07.287Z,101396.38
2023-02-02T02:12:33.795Z,101399.66
2023-02-02T02:15:18.846Z,101399.00
2023-02-02T02:18:16.957Z,101410.38
2023-02-02T02:21:12.524Z,101410.38
2023-02-02T02:24:06.670Z,101404.38
2023-02-02T02:27:03.089Z,101403.81
2023-02-02T02:29:57.759Z,101396.06
2023-02-02T02:32:49.051Z,101417.25
2023-02-02T02:35:27.988Z,101411.09
2023-02-02T02:38:02.629Z,101399.78
2023-02-02T02:40:38.006Z,101408.59
2023-02-02T02:43:20.798Z,101417.50
2023-02-02T02:45:47.834Z,101406.22
2023-02-02T02:48:14.703Z,101412.19
2023-02-02T02:50:41.276Z,101414.81
2023-02-02T02:53:22.395Z,101414.81
2023-02-02T02:56:18.743Z,101421.81
2023-02-02T02:59:07.256Z,101416.53
2023-02-02T03:01:40.289Z,101416.25
2023-02-02T03:04:44.480Z,101419.97
2023-02-02T03:07:36.794Z,101430.72
2023-02-02T03:10:06.328Z,101427.38
2023-02-02T03:12:33.003Z,101427.28
2023-02-02T03:14:59.539Z,101415.09
2023-02-02T03:17:28.032Z,101416.81
2023-02-02T03:19:54.590Z,101418.38
2023-02-02T03:22:21.125Z,101422.75
2023-02-02T03:24:47.663Z,101408.66
2023-02-02T03:27:14.256Z,101409.66
2023-02-02T03:29:40.840Z,101405.81
2023-02-02T03:32:07.559Z,101395.34
2023-02-02T03:34:34.097Z,101396.69
2023-02-02T03:37:00.602Z,101404.00
2023-02-02T03:39:27.099Z,101399.88
2023-02-02T03:41:53.600Z,101399.25
2023-02-02T03:44:20.099Z,101408.44
2023-02-02T03:46:46.697Z,101433.13
2023-02-02T03:49:13.282Z,101437.19
2023-02-02T03:51:39.866Z,101432.59
2023-02-02T03:54:06.425Z,101408.63
2023-02-02T03:56:33.027Z,101407.75
2023-02-02T03:58:59.603Z,101416.72
2023-02-02T04:01:29.042Z,101406.59
2023-02-02T04:03:56.640Z,101411.34
2023-02-02T04:06:24.479Z,101400.97
2023-02-02T04:08:51.301Z,101407.13
2023-02-02T04:11:18.781Z,101401.13
2023-02-02T04:13:45.295Z,101387.66
2023-02-02T04:16:12.751Z,101405.88
2023-02-02T04:18:39.396Z,101394.75
2023-02-02T04:21:07.568Z,101406.91
2023-02-02T04:23:34.782Z,101392.63
2023-02-02T04:26:01.498Z,101398.19
2023-02-02T04:28:28.672Z,101403.50
2023-02-02T04:30:56.241Z,101392.19
2023-02-02T04:33:24.585Z,101387.06
2023-02-02T04:35:51.255Z,101392.19
2023-02-02T04:38:17.795Z,101396.34
2023-02-02T04:40:46.336Z,101393.78
2023-02-02T04:43:13.178Z,101402.50
2023-02-02T04:45:39.968Z,101413.25
2023-02-02T04:48:06.523Z,101409.28
2023-02-02T04:50:33.114Z,101389.31
2023-02-02T04:52:59.655Z,101390.44
2023-02-02T04:55:26.481Z,101408.28
2023-02-02T04:57:53.217Z,101391.84
2023-02-02T05:00:19.995Z,101401.38
2023-02-02T05:02:46.539Z,101390.91
2023-02-02T05:05:14.485Z,101387.47
2023-02-02T05:07:41.551Z,101385.78
2023-02-02T05:10:09.677Z,101371.59
2023-02-02T05:12:36.223Z,101376.63
2023-02-02T05:15:05.288Z,101386.84
2023-02-02T05:17:32.267Z,101386.66
2023-02-02T05:19:58.870Z,101388.31
2023-02-02T05:22:28.046Z,101383.91
2023-02-02T05:24:54.520Z,101394.53
2023-02-02T05:27:21.458Z,101396.38
2023-02-02T05:29:48.314Z,101400.69
2023-02-02T05:32:15.041Z,101393.72
2023-02-02T05:34:41.727Z,101409.84
2023-02-02T05:37:08.294Z,101407.72
2023-02-02T05:39:34.828Z,101421.50
2023-02-02T05:42:01.379Z,101419.91
2023-02-02T05:44:27.920Z,101420.09
2023-02-02T05:46:54.552Z,101411.19
2023-02-02T05:49:21.173Z,101423.25
2023-02-02T05:51:50.074Z,101425.84
2023-02-02T05:54:20.389Z,101437.88
2023-02-02T05:56:48.742Z,101427.03
2023-02-02T05:59:15.360Z,101428.91
2023-02-02T06:01:41.983Z,101424.78
2023-02-02T06:04:08.802Z,101421.41
2023-02-02T06:06:35.796Z,101420.53
2023-02-02T06:09:02.696Z,101413.03
2023-02-02T06:11:29.966Z,101426.97
2023-02-02T06:13:56.858Z,101415.66
2023-02-02T06:16:23.901Z,101415.91
2023-02-02T06:18:51.586Z,101438.41
2023-02-02T06:21:20.282Z,101436.41
2023-02-02T06:23:46.861Z,101448.19
2023-02-02T06:26:14.276Z,101445.66
2023-02-02T06:28:41.671Z,101440.38
2023-02-02T06:31:10.525Z,101438.59
2023-02-02T06:33:37.598Z,101431.66
2023-02-02T06:36:06.023Z,101429.91
2023-02-02T06:38:32.746Z,101446.66
2023-02-02T06:41:00.427Z,101454.59
2023-02-02T07:56:27.911Z,101503.19
2023-02-02T07:58:56.075Z,101491.38
2023-02-02T08:01:23.753Z,101495.47
2023-02-02T08:03:50.687Z,101495.00
2023-02-02T08:06:20.265Z,101489.53
2023-02-02T08:08:48.143Z,101512.22
2023-02-02T08:11:16.615Z,101512.88
2023-02-02T08:13:43.998Z,101501.34
2023-02-02T08:16:12.698Z,101518.28
2023-02-02T08:18:40.044Z,101528.09
2023-02-02T08:21:11.005Z,101517.63
2023-02-02T08:23:38.893Z,101501.72
2023-02-02T08:26:12.831Z,101524.22
2023-02-02T08:28:42.067Z,101516.81
2023-02-02T08:31:12.409Z,101513.50
2023-02-02T08:33:39.807Z,101515.16
2023-02-02T08:36:12.406Z,101505.50
2023-02-02T08:38:39.343Z,101508.38
2023-02-02T08:41:11.132Z,101499.22
2023-02-02T08:43:37.819Z,101496.50
2023-02-02T08:46:06.453Z,101510.00
2023-02-02T08:48:34.740Z,101509.25
2023-02-02T08:51:01.896Z,101513.88
2023-02-02T08:53:31.187Z,101509.53
2023-02-02T08:56:15.256Z,101503.31
2023-02-02T08:58:55.725Z,101507.53
2023-02-02T09:01:25.436Z,101511.88
2023-02-02T09:03:56.673Z,101516.69
2023-02-02T09:06:29.105Z,101510.72
2023-02-02T09:08:55.660Z,101521.19
2023-02-02T09:11:22.921Z,101519.50
2023-02-02T09:13:53.420Z,101518.31
2023-02-02T09:16:22.192Z,101517.88
2023-02-02T09:18:48.694Z,101514.50
2023-02-02T09:21:17.213Z,101527.91
2023-02-02T09:23:45.028Z,101521.97
2023-02-02T09:26:14.124Z,101533.91
2023-02-02T09:28:42.289Z,101531.13
2023-02-02T09:31:10.569Z,101547.53
2023-02-02T09:33:37.705Z,101533.72
2023-02-02T09:36:10.242Z,101540.75
2023-02-02T09:38:38.164Z,101534.13
2023-02-02T09:41:25.948Z,101540.38
2023-02-02T09:44:25.902Z,101538.91
2023-02-02T09:47:30.192Z,101544.09
2023-02-02T09:50:03.234Z,101554.91
2023-02-02T09:52:42.393Z,101548.75
2023-02-02T09:55:27.632Z,101556.00
2023-02-02T09:58:21.843Z,101554.09
2023-02-02T10:01:07.293Z,101559.16
2023-02-02T10:03:42.861Z,101554.78
2023-02-02T10:06:18.272Z,101560.97
2023-02-02T10:08:51.158Z,101544.66
2023-02-02T10:11:24.880Z,101548.75
2023-02-02T10:13:54.960Z,101550.66
2023-02-02T10:16:24.470Z,101538.69
2023-02-02T10:19:04.646Z,101542.69
2023-02-02T10:21:46.536Z,101548.03
2023-02-02T10:24:25.168Z,101541.53
2023-02-02T10:27:04.328Z,101539.34
2023-02-02T10:29:40.149Z,101526.66
2023-02-02T10:33:22.184Z,101518.97
2023-02-02T10:36:07.150Z,101507.78
2023-02-02T10:38:45.725Z,101504.88
2023-02-02T10:41:28.947Z,101510.47
2023-02-02T10:44:38.526Z,101505.50
2023-02-02T10:47:09.798Z,101507.19
2023-02-02T10:49:41.219Z,101507.03
2023-02-02T10:52:11.118Z,101490.31
2023-02-02T10:54:56.663Z,101490.06
2023-02-02T10:57:48.434Z,101489.25
2023-02-02T11:00:25.983Z,101484.75
2023-02-02T11:02:53.607Z,101485.13
2023-02-02T11:05:43.966Z,101484.72
2023-02-02T11:08:20.729Z,101484.72
2023-02-02T11:10:52.393Z,101485.47
2023-02-02T11:13:27.079Z,101497.38
2023-02-02T11:16:16.407Z,101481.06
2023-02-02T11:18:44.402Z,101478.00
2023-02-02T11:21:32.537Z,101472.84
2023-02-02T11:24:02.378Z,101472.38
2023-02-02T11:26:47.097Z,101468.66
2023-02-02T11:29:28.284Z,101459.91
2023-02-02T11:31:55.333Z,101455.41
2023-02-02T11:34:24.897Z,101466.69
2023-02-02T11:37:12.913Z,101452.91
2023-02-02T11:39:43.415Z,101443.38
2023-02-02T11:42:24.494Z,101436.91
2023-02-02T11:44:56.596Z,101431.91
2023-02-02T11:47:30.033Z,101432.19
2023-02-02T11:49:59.515Z,101437.28
2023-02-02T11:52:32.105Z,101438.44
2023-02-02T11:55:02.672Z,101421.19
2023-02-02T11:57:30.632Z,101427.38
2023-02-02T12:00:12.490Z,101423.47
2023-02-02T12:02:46.345Z,101416.47
2023-02-02T12:05:21.681Z,101415.75
2023-02-02T12:07:49.024Z,101405.41
2023-02-02T12:10:40.684Z,101393.69
2023-02-02T12:13:45.754Z,101390.50
2023-02-02T12:16:28.528Z,101392.84
2023-02-02T12:19:28.593Z,101377.81
2023-02-02T12:22:12.228Z,101377.34
2023-02-02T12:24:48.985Z,101382.13
2023-02-02T12:28:06.234Z,101361.75
2023-02-02T12:30:44.874Z,101369.72
2023-02-02T12:33:24.255Z,101358.19
2023-02-02T12:36:21.698Z,101367.88
2023-02-02T12:39:01.713Z,101368.19
2023-02-02T12:41:31.159Z,101359.19
2023-02-02T12:44:25.505Z,101363.94
2023-02-02T12:47:19.291Z,101375.06
2023-02-02T12:50:07.186Z,101366.28
2023-02-02T12:52:52.535Z,101335.28
2023-02-02T12:55:42.852Z,101354.25
2023-02-02T12:58:18.464Z,101344.25
2023-02-02T13:01:20.219Z,101338.44
2023-02-02T13:04:01.251Z,101333.03
2023-02-02T13:06:40.280Z,101348.19
2023-02-02T13:09:09.941Z,101347.78
2023-02-02T13:11:49.951Z,101340.84
2023-02-02T13:14:37.402Z,101340.84
2023-02-02T13:17:15.860Z,101339.16
2023-02-02T13:19:46.760Z,101345.09
2023-02-02T13:22:38.272Z,101338.81
2023-02-02T13:25:09.342Z,101341.50
2023-02-02T13:27:39.071Z,101335.91
2023-02-02T13:30:20.165Z,101331.00
2023-02-02T13:32:49.369Z,101326.59
2023-02-02T13:35:21.462Z,101324.72
2023-02-02T13:37:50.738Z,101330.16
2023-02-02T13:40:34.401Z,101333.34
2023-02-02T13:43:22.551Z,101327.44
2023-02-02T13:46:29.531Z,101325.19
2023-02-02T13:49:10.739Z,101327.88
2023-02-02T13:51:53.739Z,101325.47
2023-02-02T13:55:05.338Z,101321.28
2023-02-02T13:57:52.784Z,101319.03
2023-02-02T14:00:28.764Z,101324.66
2023-02-02T14:03:04.001Z,101314.94
2023-02-02T14:05:34.114Z,101312.91
2023-02-02T14:08:07.147Z,101312.00
2023-02-02T14:10:37.129Z,101326.41
2023-02-02T14:13:35.163Z,101322.97
2023-02-02T14:16:07.060Z,101326.00
2023-02-02T14:18:54.310Z,101334.00
2023-02-02T14:21:32.751Z,101332.44
2023-02-02T14:24:03.005Z,101329.53
2023-02-02T14:26:46.358Z,101338.09
2023-02-02T14:29:29.543Z,101337.53
2023-02-02T14:31:59.192Z,101338.34
2023-02-02T14:34:34.851Z,101341.63
2023-02-02T14:37:04.058Z,101343.94
2023-02-02T14:39:30.693Z,101344.72
2023-02-02T14:42:51.607Z,101326.47
2023-02-02T14:45:35.802Z,101335.06
2023-02-02T14:48:17.929Z,101337.38
2023-02-02T14:50:57.387Z,101342.28
2023-02-02T14:53:37.327Z,101340.66
2023-02-02T14:56:16.315Z,101340.41
2023-02-02T14:58:52.713Z,101352.53
2023-02-02T15:01:28.079Z,101356.56
2023-02-02T15:04:00.604Z,101362.91
2023-02-02T15:06:34.840Z,101364.50
2023-02-02T15:09:20.125Z,101365.13
2023-02-02T15:12:00.873Z,101360.84
2023-02-02T15:14:48.999Z,101359.25
2023-02-02T15:17:34.246Z,101361.00
2023-02-02T15:20:14.835Z,101363.44
2023-02-02T15:22:48.820Z,101365.88
2023-02-02T15:25:34.139Z,101371.34
2023-02-02T15:28:19.312Z,101367.81
2023-02-02T15:30:51.225Z,101365.16
2023-02-02T15:33:28.575Z,101372.28
2023-02-02T15:35:59.366Z,101365.75
2023-02-02T15:38:34.809Z,101361.94
2023-02-02T15:41:18.679Z,101351.31
2023-02-02T15:43:45.619Z,101353.91
2023-02-02T15:46:23.828Z,101343.44
2023-02-02T15:49:34.339Z,101355.63
2023-02-02T15:52:11.389Z,101363.91
2023-02-02T15:54:38.256Z,101363.34
2023-02-02T15:57:23.755Z,101368.59
2023-02-02T15:59:50.537Z,101355.53
2023-02-02T16:02:27.768Z,101369.03
2023-02-02T16:04:54.342Z,101368.38
2023-02-02T16:07:30.940Z,101366.66
2023-02-02T16:10:04.078Z,101366.66
2023-02-02T16:12:31.093Z,101366.63
2023-02-02T16:14:57.999Z,101373.56
2023-02-02T16:17:30.218Z,101369.16
2023-02-02T16:20:08.660Z,101375.72
2023-02-02T16:22:37.353Z,101393.69
2023-02-02T16:25:09.677Z,101382.31
2023-02-02T16:27:37.706Z,101388.25
2023-02-02T16:30:07.784Z,101389.06
2023-02-02T16:32:38.754Z,101394.38
2023-02-02T16:35:23.711Z,101397.03
2023-02-02T16:37:50.536Z,101394.16
2023-02-02T16:40:28.390Z,101404.84
2023-02-02T16:43:13.753Z,101399.75
2023-02-02T16:45:52.753Z,101404.81
2023-02-02T16:48:29.800Z,101401.91
2023-02-02T16:51:17.955Z,101405.94
2023-02-02T16:53:48.356Z,101416.22
2023-02-02T16:56:54.442Z,101411.59
2023-02-02T16:59:33.485Z,101418.13
2023-02-02T17:02:20.987Z,101424.88
2023-02-02T17:04:52.160Z,101430.97
2023-02-02T17:07:21.270Z,101436.72
2023-02-02T17:09:48.959Z,101447.25
2023-02-02T17:12:30.733Z,101443.72
2023-02-02T17:15:05.611Z,101438.94
2023-02-02T17:17:32.168Z,101441.31
2023-02-02T17:19:58.990Z,101445.44
2023-02-02T17:22:27.693Z,101446.91
2023-02-02T17:24:54.279Z,101440.81
2023-02-02T17:27:34.120Z,101449.22
2023-02-02T17:30:02.551Z,101456.16
2023-02-02T17:32:29.103Z,101460.41
2023-02-02T17:34:55.879Z,101471.31
2023-02-02T17:37:22.451Z,101471.88
2023-02-02T17:39:50.715Z,101457.22
2023-02-02T17:42:25.197Z,101470.19
2023-02-02T17:44:52.191Z,101463.28
2023-02-02T17:47:18.779Z,101465.44
2023-02-02T17:49:45.342Z,101461.47
2023-02-02T17:52:12.836Z,101468.59
2023-02-02T17:54:39.413Z,101476.94
2023-02-02T17:57:06.106Z,101476.31
2023-02-02T17:59:32.626Z,101477.75
2023-02-02T18:01:59.597Z,101473.66
2023-02-02T18:04:26.927Z,101474.22
2023-02-02T18:06:53.540Z,101478.53
2023-02-02T18:09:20.159Z,101481.00
2023-02-02T18:11:49.352Z,101481.75
2023-02-02T18:14:15.940Z,101479.69
2023-02-02T18:16:42.504Z,101487.09
2023-02-02T18:19:09.305Z,101499.91
2023-02-02T18:21:35.984Z,101507.31
2023-02-02T18:24:02.581Z,101518.22
2023-02-02T18:26:31.313Z,101501.84
2023-02-02T18:28:59.213Z,101505.59
2023-02-02T18:31:27.042Z,101512.63
2023-02-02T18:33:54.484Z,101501.19
2023-02-02T18:36:23.437Z,101500.53
2023-02-02T18:38:51.387Z,101489.97
2023-02-02T18:41:19.344Z,101502.91
2023-02-02T18:43:45.934Z,101502.91
2023-02-02T18:46:18.044Z,101510.28
2023-02-02T18:48:44.635Z,101498.53
2023-02-02T18:51:16.574Z,101509.50
2023-02-02T18:53:43.763Z,101507.44
2023-02-02T18:56:12.908Z,101511.59
2023-02-02T18:58:39.724Z,101516.94
2023-02-02T19:01:11.333Z,101511.06
2023-02-02T19:03:39.275Z,101507.94
2023-02-02T19:06:26.278Z,101515.94
2023-02-02T19:08:52.939Z,101517.97
2023-02-02T19:11:29.008Z,101516.47
2023-02-02T19:13:56.220Z,101526.69
2023-02-02T19:16:25.000Z,101527.97
2023-02-02T19:18:51.946Z,101532.94
2023-02-02T19:21:18.497Z,101529.69
2023-02-02T19:23:46.090Z,101536.94
2023-02-02T19:26:22.924Z,101520.34
2023-02-02T19:28:49.565Z,101528.38
2023-02-02T19:31:16.842Z,101527.69
2023-02-02T19:33:47.788Z,101526.75
2023-02-02T19:36:19.166Z,101547.53
2023-02-02T19:38:51.852Z,101554.03
2023-02-02T19:41:21.119Z,101548.59
2023-02-02T19:43:50.185Z,101566.44
2023-02-02T19:46:22.237Z,101580.81
2023-02-02T19:48:52.238Z,101580.44
2023-02-02T19:51:42.032Z,101599.19
2023-02-02T19:54:29.300Z,101610.53
2023-02-02T19:56:58.589Z,101610.78
2023-02-02T19:59:30.803Z,101604.16
2023-02-02T20:01:58.558Z,101596.31
2023-02-02T20:04:25.627Z,101594.69
2023-02-02T20:06:59.717Z,101592.03
2023-02-02T20:09:33.492Z,101613.09
2023-02-02T20:12:00.688Z,101601.56
2023-02-02T20:14:32.733Z,101602.88
2023-02-02T20:17:07.350Z,101608.50
2023-02-02T20:19:41.014Z,101620.19
2023-02-02T20:22:28.561Z,101624.84
2023-02-02T20:24:57.285Z,101627.34
2023-02-02T20:27:26.790Z,101632.75
2023-02-02T20:29:56.808Z,101616.47
2023-02-02T20:32:26.706Z,101650.38
2023-02-02T20:34:55.831Z,101642.19
2023-02-02T20:37:27.232Z,101636.44
2023-02-02T20:40:00.159Z,101643.16
2023-02-02T20:42:28.863Z,101652.28
2023-02-02T20:44:56.456Z,101651.75
2023-02-02T20:47:23.248Z,101649.34
2023-02-02T20:49:49.960Z,101644.78
2023-02-02T20:52:23.953Z,101651.25
2023-02-02T20:54:52.311Z,101651.44
2023-02-02T20:57:19.291Z,101645.75
2023-02-02T20:59:45.822Z,101659.41
2023-02-02T21:02:22.726Z,101663.03
2023-02-02T21:04:51.116Z,101660.63
2023-02-02T21:07:20.759Z,101633.91
2023-02-02T21:09:49.579Z,101649.97
2023-02-02T21:12:16.601Z,101650.66
2023-02-02T21:14:45.141Z,101645.44
2023-02-02T21:17:16.147Z,101657.28
2023-02-02T21:19:43.835Z,101655.22
2023-02-02T21:22:10.844Z,101682.38
2023-02-02T21:24:37.533Z,101695.88
2023-02-02T21:27:04.702Z,101682.44
2023-02-02T21:29:32.723Z,101679.53
2023-02-02T21:32:02.525Z,101698.16
2023-02-02T21:34:29.893Z,101711.31
2023-02-02T21:36:58.275Z,101705.03
2023-02-02T21:39:29.340Z,101698.53
2023-02-02T21:42:20.381Z,101703.88
2023-02-02T21:45:25.150Z,101710.88
2023-02-02T21:47:55.162Z,101721.44
2023-02-02T21:50:28.958Z,101719.50
2023-02-02T21:53:14.458Z,101701.66
2023-02-02T21:55:41.078Z,101714.56
2023-02-02T21:58:35.350Z,101719.88
2023-02-02T22:01:24.487Z,101714.69
2023-02-02T22:03:51.112Z,101717.06
2023-02-02T22:06:28.114Z,101730.06
2023-02-02T22:09:12.911Z,101745.16
2023-02-02T22:12:01.465Z,101740.78
2023-02-02T22:15:01.696Z,101745.38
2023-02-02T22:17:39.919Z,101745.56
2023-02-02T22:20:37.167Z,101744.69
2023-02-02T22:23:04.014Z,101740.47
2023-02-02T22:25:36.813Z,101744.00
2023-02-02T22:28:23.734Z,101761.97
2023-02-02T22:30:52.232Z,101759.50
2023-02-02T22:33:18.981Z,101775.28
2023-02-02T22:35:46.501Z,101773.88
2023-02-02T22:38:19.272Z,101779.03
2023-02-02T22:40:46.900Z,101775.88
2023-02-02T22:43:16.213Z,101775.25
2023-02-02T22:45:43.491Z,101787.81
2023-02-02T22:48:10.474Z,101784.47
2023-02-02T22:50:37.079Z,101795.22
2023-02-02T22:53:04.466Z,101799.47
2023-02-02T22:55:32.024Z,101785.16
2023-02-02T22:57:58.586Z,101784.38
2023-02-02T23:00:28.346Z,101794.38
2023-02-02T23:02:55.926Z,101801.41
2023-02-02T23:05:23.914Z,101808.53
2023-02-02T23:07:51.166Z,101804.28
2023-02-02T23:10:22.500Z,101794.91
2023-02-02T23:12:50.671Z,101793.47
2023-02-02T23:15:19.165Z,101806.97
2023-02-02T23:17:45.731Z,101805.25
2023-02-02T23:20:14.111Z,101809.56
2023-02-02T23:22:40.752Z,101805.25
2023-02-02T23:25:07.480Z,101825.13
2023-02-02T23:27:34.099Z,101826.78
2023-02-02T23:30:00.619Z,101831.25
2023-02-02T23:32:27.218Z,101823.63
2023-02-02T23:34:53.711Z,101828.22
2023-02-02T23:37:20.241Z,101828.38
2023-02-02T23:39:46.784Z,101833.81
2023-02-02T23:42:13.443Z,101835.66
2023-02-02T23:44:40.126Z,101827.69
2023-02-02T23:47:07.066Z,101810.75
2023-02-02T23:49:34.683Z,101829.66
2023-02-02T23:52:01.324Z,101825.31
2023-02-02T23:54:29.575Z,101833.16
2023-02-02T23:56:57.244Z,101830.34
2023-02-02T23:59:23.820Z,101824.41
